Darlag, China
Current Conditions -  °F | °C
As of 1:00 AM on Monday 22 Dec 2014 (Local Time) from ZLLL Reporting Station
Clear Clear  
Wind Chill:   Ceiling: Unl
Heat Index:   Visibility: 4mi
Dew Point: -2°   Wind: 2mph
Humidity: 67%   Direction: 310°NW
Pressure: 30.15"   Gusts: NA
Location:  33.75°N, 99.65°E
Report Text: ZLLL 211700Z 31001MPS 6000 NSC M14/M19 Q1021 NOSIG
Loading
Personal Weather Stations






























Interactive Weather Map New forecast layout! Learn more

10-Day Weather Forecast

Advertisements
Track Severe Weather on mobile